sensor_id;sensor_type;location;lat;lon;timestamp;P1;durP1;ratioP1;P2;durP2;ratioP2
22851;SDS011;11592;45.460;9.240;2023-07-24T00:02:25;23.70;;;13.05;;
22851;SDS011;11592;45.460;9.240;2023-07-24T00:04:52;22.33;;;12.32;;
22851;SDS011;11592;45.460;9.240;2023-07-24T00:07:19;21.45;;;13.10;;
22851;SDS011;11592;45.460;9.240;2023-07-24T00:09:46;21.38;;;12.90;;
22851;SDS011;11592;45.460;9.240;2023-07-24T00:12:13;27.73;;;12.70;;
22851;SDS011;11592;45.460;9.240;2023-07-24T00:14:40;22.10;;;12.80;;
22851;SDS011;11592;45.460;9.240;2023-07-24T00:17:07;24.65;;;12.77;;
22851;SDS011;11592;45.460;9.240;2023-07-24T00:19:34;20.23;;;12.23;;
22851;SDS011;11592;45.460;9.240;2023-07-24T00:22:01;20.33;;;11.60;;
22851;SDS011;11592;45.460;9.240;2023-07-24T00:24:29;19.27;;;12.20;;
22851;SDS011;11592;45.460;9.240;2023-07-24T00:26:57;23.13;;;12.38;;
22851;SDS011;11592;45.460;9.240;2023-07-24T00:29:24;18.23;;;11.98;;
22851;SDS011;11592;45.460;9.240;2023-07-24T00:31:50;23.70;;;12.48;;
22851;SDS011;11592;45.460;9.240;2023-07-24T00:34:17;21.48;;;11.98;;
22851;SDS011;11592;45.460;9.240;2023-07-24T00:36:44;20.45;;;11.93;;
22851;SDS011;11592;45.460;9.240;2023-07-24T00:39:11;24.08;;;12.88;;
22851;SDS011;11592;45.460;9.240;2023-07-24T00:41:40;20.20;;;12.45;;
22851;SDS011;11592;45.460;9.240;2023-07-24T00:44:08;22.40;;;13.10;;
22851;SDS011;11592;45.460;9.240;2023-07-24T00:46:35;21.67;;;12.85;;
22851;SDS011;11592;45.460;9.240;2023-07-24T00:49:02;20.35;;;12.60;;
22851;SDS011;11592;45.460;9.240;2023-07-24T00:51:30;18.58;;;11.90;;
22851;SDS011;11592;45.460;9.240;2023-07-24T00:54:01;26.60;;;12.55;;
22851;SDS011;11592;45.460;9.240;2023-07-24T00:56:29;20.95;;;12.77;;
22851;SDS011;11592;45.460;9.240;2023-07-24T00:58:58;21.40;;;12.20;;
22851;SDS011;11592;45.460;9.240;2023-07-24T01:01:26;22.45;;;13.00;;
22851;SDS011;11592;45.460;9.240;2023-07-24T01:03:54;18.05;;;11.68;;
22851;SDS011;11592;45.460;9.240;2023-07-24T01:06:23;20.52;;;11.75;;
22851;SDS011;11592;45.460;9.240;2023-07-24T01:08:50;22.92;;;12.27;;
22851;SDS011;11592;45.460;9.240;2023-07-24T01:11:21;20.38;;;12.30;;
22851;SDS011;11592;45.460;9.240;2023-07-24T01:13:57;18.20;;;12.30;;
22851;SDS011;11592;45.460;9.240;2023-07-24T01:16:36;19.20;;;12.45;;
22851;SDS011;11592;45.460;9.240;2023-07-24T01:19:09;20.92;;;11.80;;
22851;SDS011;11592;45.460;9.240;2023-07-24T01:21:49;17.45;;;11.15;;
22851;SDS011;11592;45.460;9.240;2023-07-24T01:24:33;23.52;;;11.30;;
22851;SDS011;11592;45.460;9.240;2023-07-24T01:27:08;20.08;;;12.32;;
22851;SDS011;11592;45.460;9.240;2023-07-24T01:29:35;18.08;;;11.52;;
22851;SDS011;11592;45.460;9.240;2023-07-24T01:32:02;19.50;;;11.82;;
22851;SDS011;11592;45.460;9.240;2023-07-24T01:34:29;21.92;;;12.38;;
22851;SDS011;11592;45.460;9.240;2023-07-24T01:36:56;19.80;;;11.18;;
22851;SDS011;11592;45.460;9.240;2023-07-24T01:39:23;17.90;;;11.20;;
22851;SDS011;11592;45.460;9.240;2023-07-24T01:41:50;19.30;;;11.65;;
22851;SDS011;11592;45.460;9.240;2023-07-24T01:44:17;18.85;;;11.65;;
22851;SDS011;11592;45.460;9.240;2023-07-24T01:46:44;22.90;;;11.82;;
22851;SDS011;11592;45.460;9.240;2023-07-24T01:49:11;23.35;;;11.57;;
22851;SDS011;11592;45.460;9.240;2023-07-24T01:51:38;25.10;;;12.15;;
22851;SDS011;11592;45.460;9.240;2023-07-24T01:54:05;19.05;;;11.75;;
22851;SDS011;11592;45.460;9.240;2023-07-24T01:56:33;19.75;;;11.48;;
22851;SDS011;11592;45.460;9.240;2023-07-24T01:59:02;26.25;;;11.77;;
22851;SDS011;11592;45.460;9.240;2023-07-24T02:01:28;19.20;;;11.52;;
22851;SDS011;11592;45.460;9.240;2023-07-24T02:03:55;19.20;;;11.27;;
22851;SDS011;11592;45.460;9.240;2023-07-24T02:06:22;20.70;;;12.00;;
22851;SDS011;11592;45.460;9.240;2023-07-24T02:08:49;18.75;;;11.38;;
22851;SDS011;11592;45.460;9.240;2023-07-24T02:11:17;22.15;;;11.98;;
22851;SDS011;11592;45.460;9.240;2023-07-24T02:13:44;21.48;;;12.00;;
22851;SDS011;11592;45.460;9.240;2023-07-24T02:16:11;20.02;;;11.90;;
22851;SDS011;11592;45.460;9.240;2023-07-24T02:18:41;20.63;;;12.57;;
22851;SDS011;11592;45.460;9.240;2023-07-24T02:21:08;21.55;;;12.90;;
22851;SDS011;11592;45.460;9.240;2023-07-24T02:23:35;21.35;;;12.35;;
22851;SDS011;11592;45.460;9.240;2023-07-24T02:26:02;22.73;;;13.88;;
22851;SDS011;11592;45.460;9.240;2023-07-24T02:28:29;21.55;;;13.05;;
22851;SDS011;11592;45.460;9.240;2023-07-24T02:30:56;22.15;;;12.60;;
22851;SDS011;11592;45.460;9.240;2023-07-24T02:33:23;20.23;;;12.35;;
22851;SDS011;11592;45.460;9.240;2023-07-24T02:35:51;18.33;;;11.95;;
22851;SDS011;11592;45.460;9.240;2023-07-24T02:38:19;20.80;;;12.63;;
22851;SDS011;11592;45.460;9.240;2023-07-24T02:40:45;22.45;;;12.10;;
22851;SDS011;11592;45.460;9.240;2023-07-24T02:43:12;21.02;;;12.73;;
22851;SDS011;11592;45.460;9.240;2023-07-24T02:45:39;23.23;;;11.95;;
22851;SDS011;11592;45.460;9.240;2023-07-24T02:48:06;23.05;;;12.70;;
22851;SDS011;11592;45.460;9.240;2023-07-24T02:50:33;18.73;;;12.05;;
22851;SDS011;11592;45.460;9.240;2023-07-24T02:53:00;24.45;;;12.25;;
22851;SDS011;11592;45.460;9.240;2023-07-24T02:55:27;25.05;;;12.85;;
22851;SDS011;11592;45.460;9.240;2023-07-24T02:57:54;21.15;;;12.85;;
22851;SDS011;11592;45.460;9.240;2023-07-24T03:00:21;22.55;;;11.98;;
22851;SDS011;11592;45.460;9.240;2023-07-24T03:02:47;18.85;;;12.32;;
22851;SDS011;11592;45.460;9.240;2023-07-24T03:05:14;22.30;;;12.32;;
22851;SDS011;11592;45.460;9.240;2023-07-24T03:07:41;20.17;;;12.02;;
22851;SDS011;11592;45.460;9.240;2023-07-24T03:10:08;21.23;;;12.48;;
22851;SDS011;11592;45.460;9.240;2023-07-24T03:12:35;19.08;;;12.30;;
22851;SDS011;11592;45.460;9.240;2023-07-24T03:15:02;19.13;;;12.02;;
22851;SDS011;11592;45.460;9.240;2023-07-24T03:17:29;21.38;;;11.77;;
22851;SDS011;11592;45.460;9.240;2023-07-24T03:19:56;24.95;;;13.10;;
22851;SDS011;11592;45.460;9.240;2023-07-24T03:22:23;22.13;;;12.40;;
22851;SDS011;11592;45.460;9.240;2023-07-24T03:24:49;23.50;;;13.10;;
22851;SDS011;11592;45.460;9.240;2023-07-24T03:27:16;24.52;;;13.30;;
22851;SDS011;11592;45.460;9.240;2023-07-24T03:29:43;21.10;;;12.88;;
22851;SDS011;11592;45.460;9.240;2023-07-24T03:32:10;20.38;;;11.95;;
22851;SDS011;11592;45.460;9.240;2023-07-24T03:34:37;26.00;;;13.02;;
22851;SDS011;11592;45.460;9.240;2023-07-24T03:37:04;19.88;;;12.07;;
22851;SDS011;11592;45.460;9.240;2023-07-24T03:39:30;21.30;;;12.90;;
22851;SDS011;11592;45.460;9.240;2023-07-24T03:41:57;19.55;;;12.02;;
22851;SDS011;11592;45.460;9.240;2023-07-24T03:44:24;21.15;;;12.77;;
22851;SDS011;11592;45.460;9.240;2023-07-24T03:46:51;20.42;;;12.07;;
22851;SDS011;11592;45.460;9.240;2023-07-24T03:49:18;22.83;;;13.07;;
22851;SDS011;11592;45.460;9.240;2023-07-24T03:51:44;23.00;;;12.95;;
22851;SDS011;11592;45.460;9.240;2023-07-24T03:54:11;21.65;;;13.60;;
22851;SDS011;11592;45.460;9.240;2023-07-24T03:56:38;21.88;;;12.65;;
22851;SDS011;11592;45.460;9.240;2023-07-24T03:59:05;21.38;;;12.73;;
22851;SDS011;11592;45.460;9.240;2023-07-24T04:01:32;23.05;;;13.30;;
22851;SDS011;11592;45.460;9.240;2023-07-24T04:03:59;22.20;;;12.45;;
22851;SDS011;11592;45.460;9.240;2023-07-24T04:06:26;23.83;;;13.25;;
22851;SDS011;11592;45.460;9.240;2023-07-24T04:08:53;22.27;;;12.60;;
22851;SDS011;11592;45.460;9.240;2023-07-24T04:11:20;22.88;;;12.38;;
22851;SDS011;11592;45.460;9.240;2023-07-24T04:13:47;20.25;;;12.23;;
22851;SDS011;11592;45.460;9.240;2023-07-24T04:16:14;27.75;;;12.77;;
22851;SDS011;11592;45.460;9.240;2023-07-24T04:18:41;22.58;;;12.40;;
22851;SDS011;11592;45.460;9.240;2023-07-24T04:21:07;23.77;;;13.43;;
22851;SDS011;11592;45.460;9.240;2023-07-24T04:23:34;22.15;;;13.15;;
22851;SDS011;11592;45.460;9.240;2023-07-24T04:26:03;23.13;;;12.50;;
22851;SDS011;11592;45.460;9.240;2023-07-24T04:28:30;21.80;;;12.75;;
22851;SDS011;11592;45.460;9.240;2023-07-24T04:30:59;23.42;;;12.73;;
22851;SDS011;11592;45.460;9.240;2023-07-24T04:33:27;22.40;;;12.73;;
22851;SDS011;11592;45.460;9.240;2023-07-24T04:35:54;23.45;;;13.10;;
22851;SDS011;11592;45.460;9.240;2023-07-24T04:38:22;25.60;;;13.50;;
22851;SDS011;11592;45.460;9.240;2023-07-24T04:40:49;22.55;;;12.85;;
22851;SDS011;11592;45.460;9.240;2023-07-24T04:43:16;22.25;;;12.52;;
22851;SDS011;11592;45.460;9.240;2023-07-24T04:45:42;20.45;;;12.35;;
22851;SDS011;11592;45.460;9.240;2023-07-24T04:48:09;23.50;;;12.40;;
22851;SDS011;11592;45.460;9.240;2023-07-24T04:50:36;20.83;;;12.45;;
22851;SDS011;11592;45.460;9.240;2023-07-24T04:53:03;23.58;;;12.20;;
22851;SDS011;11592;45.460;9.240;2023-07-24T04:55:30;26.08;;;12.50;;
22851;SDS011;11592;45.460;9.240;2023-07-24T04:57:56;26.60;;;12.43;;
22851;SDS011;11592;45.460;9.240;2023-07-24T05:00:23;24.10;;;12.70;;
22851;SDS011;11592;45.460;9.240;2023-07-24T05:02:51;22.63;;;11.63;;
22851;SDS011;11592;45.460;9.240;2023-07-24T05:05:18;24.58;;;13.45;;
22851;SDS011;11592;45.460;9.240;2023-07-24T05:07:45;26.17;;;12.48;;
22851;SDS011;11592;45.460;9.240;2023-07-24T05:10:12;23.92;;;12.05;;
22851;SDS011;11592;45.460;9.240;2023-07-24T05:12:42;23.15;;;12.45;;
22851;SDS011;11592;45.460;9.240;2023-07-24T05:15:09;21.38;;;12.27;;
22851;SDS011;11592;45.460;9.240;2023-07-24T05:17:36;22.10;;;12.45;;
22851;SDS011;11592;45.460;9.240;2023-07-24T05:20:03;23.05;;;12.77;;
22851;SDS011;11592;45.460;9.240;2023-07-24T05:22:31;26.88;;;11.98;;
22851;SDS011;11592;45.460;9.240;2023-07-24T05:24:57;20.25;;;11.55;;
22851;SDS011;11592;45.460;9.240;2023-07-24T05:27:24;19.33;;;11.60;;
22851;SDS011;11592;45.460;9.240;2023-07-24T05:29:51;22.27;;;11.50;;
22851;SDS011;11592;45.460;9.240;2023-07-24T05:32:18;21.50;;;11.05;;
22851;SDS011;11592;45.460;9.240;2023-07-24T05:34:45;24.30;;;13.10;;
22851;SDS011;11592;45.460;9.240;2023-07-24T05:37:11;19.73;;;11.43;;
22851;SDS011;11592;45.460;9.240;2023-07-24T05:39:38;22.77;;;11.68;;
22851;SDS011;11592;45.460;9.240;2023-07-24T05:42:05;24.38;;;11.93;;
22851;SDS011;11592;45.460;9.240;2023-07-24T05:44:32;22.02;;;12.02;;
22851;SDS011;11592;45.460;9.240;2023-07-24T05:46:59;22.67;;;11.60;;
22851;SDS011;11592;45.460;9.240;2023-07-24T05:49:26;21.45;;;12.40;;
22851;SDS011;11592;45.460;9.240;2023-07-24T05:51:52;23.25;;;11.45;;
22851;SDS011;11592;45.460;9.240;2023-07-24T05:54:20;20.90;;;12.02;;
22851;SDS011;11592;45.460;9.240;2023-07-24T05:56:47;25.00;;;12.20;;
22851;SDS011;11592;45.460;9.240;2023-07-24T05:59:14;20.20;;;12.73;;
22851;SDS011;11592;45.460;9.240;2023-07-24T06:01:40;22.02;;;12.52;;
22851;SDS011;11592;45.460;9.240;2023-07-24T06:04:07;22.02;;;11.68;;
22851;SDS011;11592;45.460;9.240;2023-07-24T06:06:34;20.75;;;11.48;;
22851;SDS011;11592;45.460;9.240;2023-07-24T06:09:02;19.52;;;11.98;;
22851;SDS011;11592;45.460;9.240;2023-07-24T06:11:29;22.85;;;12.27;;
22851;SDS011;11592;45.460;9.240;2023-07-24T06:13:56;21.52;;;11.43;;
22851;SDS011;11592;45.460;9.240;2023-07-24T06:16:23;20.80;;;11.57;;
22851;SDS011;11592;45.460;9.240;2023-07-24T06:18:50;22.75;;;12.57;;
22851;SDS011;11592;45.460;9.240;2023-07-24T06:21:16;23.50;;;13.45;;
22851;SDS011;11592;45.460;9.240;2023-07-24T06:23:43;23.08;;;13.20;;
22851;SDS011;11592;45.460;9.240;2023-07-24T06:26:10;20.05;;;11.82;;
22851;SDS011;11592;45.460;9.240;2023-07-24T06:28:37;24.63;;;12.13;;
22851;SDS011;11592;45.460;9.240;2023-07-24T06:31:04;22.85;;;12.80;;
22851;SDS011;11592;45.460;9.240;2023-07-24T06:33:31;24.23;;;13.20;;
22851;SDS011;11592;45.460;9.240;2023-07-24T06:35:57;23.90;;;13.60;;
22851;SDS011;11592;45.460;9.240;2023-07-24T06:38:24;27.00;;;13.50;;
22851;SDS011;11592;45.460;9.240;2023-07-24T06:40:51;19.98;;;11.93;;
22851;SDS011;11592;45.460;9.240;2023-07-24T06:43:18;23.00;;;12.95;;
22851;SDS011;11592;45.460;9.240;2023-07-24T06:45:45;22.98;;;12.98;;
22851;SDS011;11592;45.460;9.240;2023-07-24T06:48:12;26.70;;;13.63;;
22851;SDS011;11592;45.460;9.240;2023-07-24T06:50:39;21.35;;;12.00;;
22851;SDS011;11592;45.460;9.240;2023-07-24T06:53:06;23.77;;;13.35;;
22851;SDS011;11592;45.460;9.240;2023-07-24T06:55:32;23.63;;;12.77;;
22851;SDS011;11592;45.460;9.240;2023-07-24T06:57:59;21.17;;;12.32;;
22851;SDS011;11592;45.460;9.240;2023-07-24T07:00:26;26.20;;;13.38;;
22851;SDS011;11592;45.460;9.240;2023-07-24T07:02:53;22.85;;;12.77;;
22851;SDS011;11592;45.460;9.240;2023-07-24T07:05:19;20.83;;;12.60;;
22851;SDS011;11592;45.460;9.240;2023-07-24T07:07:46;28.13;;;13.68;;
22851;SDS011;11592;45.460;9.240;2023-07-24T07:10:13;26.33;;;14.20;;
22851;SDS011;11592;45.460;9.240;2023-07-24T07:12:40;27.52;;;14.50;;
22851;SDS011;11592;45.460;9.240;2023-07-24T07:15:07;21.70;;;12.48;;
22851;SDS011;11592;45.460;9.240;2023-07-24T07:17:35;23.50;;;13.65;;
22851;SDS011;11592;45.460;9.240;2023-07-24T07:20:02;27.55;;;13.07;;
22851;SDS011;11592;45.460;9.240;2023-07-24T07:22:29;32.50;;;14.73;;
22851;SDS011;11592;45.460;9.240;2023-07-24T07:24:56;24.10;;;13.68;;
22851;SDS011;11592;45.460;9.240;2023-07-24T07:27:23;24.10;;;13.40;;
22851;SDS011;11592;45.460;9.240;2023-07-24T07:29:50;24.90;;;13.75;;
22851;SDS011;11592;45.460;9.240;2023-07-24T07:32:16;27.17;;;13.75;;
22851;SDS011;11592;45.460;9.240;2023-07-24T07:34:43;18.35;;;11.65;;
22851;SDS011;11592;45.460;9.240;2023-07-24T07:37:10;21.85;;;12.55;;
22851;SDS011;11592;45.460;9.240;2023-07-24T07:39:37;22.40;;;12.80;;
22851;SDS011;11592;45.460;9.240;2023-07-24T07:42:04;21.40;;;12.60;;
22851;SDS011;11592;45.460;9.240;2023-07-24T07:44:43;21.95;;;11.98;;
22851;SDS011;11592;45.460;9.240;2023-07-24T07:47:09;21.80;;;13.07;;
22851;SDS011;11592;45.460;9.240;2023-07-24T07:49:36;24.25;;;12.77;;
22851;SDS011;11592;45.460;9.240;2023-07-24T07:52:03;23.38;;;11.82;;
22851;SDS011;11592;45.460;9.240;2023-07-24T07:54:30;26.77;;;12.38;;
22851;SDS011;11592;45.460;9.240;2023-07-24T07:56:57;21.48;;;11.43;;
22851;SDS011;11592;45.460;9.240;2023-07-24T07:59:24;20.02;;;12.05;;
22851;SDS011;11592;45.460;9.240;2023-07-24T08:01:51;18.45;;;11.25;;
22851;SDS011;11592;45.460;9.240;2023-07-24T08:04:18;21.38;;;11.98;;
22851;SDS011;11592;45.460;9.240;2023-07-24T08:06:45;19.75;;;11.57;;
22851;SDS011;11592;45.460;9.240;2023-07-24T08:09:11;24.45;;;13.63;;
22851;SDS011;11592;45.460;9.240;2023-07-24T08:11:38;22.52;;;11.98;;
22851;SDS011;11592;45.460;9.240;2023-07-24T08:14:05;27.02;;;13.48;;
22851;SDS011;11592;45.460;9.240;2023-07-24T08:16:32;24.30;;;13.10;;
22851;SDS011;11592;45.460;9.240;2023-07-24T08:18:59;24.67;;;12.75;;
22851;SDS011;11592;45.460;9.240;2023-07-24T08:21:26;21.33;;;11.45;;
22851;SDS011;11592;45.460;9.240;2023-07-24T08:23:53;25.05;;;12.35;;
22851;SDS011;11592;45.460;9.240;2023-07-24T08:26:20;22.42;;;12.02;;
22851;SDS011;11592;45.460;9.240;2023-07-24T08:28:46;21.73;;;11.93;;
22851;SDS011;11592;45.460;9.240;2023-07-24T08:31:13;21.73;;;12.60;;
22851;SDS011;11592;45.460;9.240;2023-07-24T08:33:40;21.80;;;12.00;;
22851;SDS011;11592;45.460;9.240;2023-07-24T08:36:07;20.95;;;11.20;;
22851;SDS011;11592;45.460;9.240;2023-07-24T08:38:35;22.45;;;12.00;;
22851;SDS011;11592;45.460;9.240;2023-07-24T08:41:12;20.77;;;11.38;;
22851;SDS011;11592;45.460;9.240;2023-07-24T08:43:40;23.80;;;11.98;;
22851;SDS011;11592;45.460;9.240;2023-07-24T08:46:08;19.70;;;11.60;;
22851;SDS011;11592;45.460;9.240;2023-07-24T08:48:36;23.45;;;12.15;;
22851;SDS011;11592;45.460;9.240;2023-07-24T08:51:06;21.08;;;11.40;;
22851;SDS011;11592;45.460;9.240;2023-07-24T08:53:45;26.23;;;10.95;;
22851;SDS011;11592;45.460;9.240;2023-07-24T08:56:13;19.05;;;10.90;;
22851;SDS011;11592;45.460;9.240;2023-07-24T08:58:41;22.58;;;11.18;;
22851;SDS011;11592;45.460;9.240;2023-07-24T09:01:08;20.98;;;11.63;;
22851;SDS011;11592;45.460;9.240;2023-07-24T09:03:35;21.50;;;11.98;;
22851;SDS011;11592;45.460;9.240;2023-07-24T09:06:03;20.95;;;11.68;;
22851;SDS011;11592;45.460;9.240;2023-07-24T09:08:31;22.42;;;11.65;;
22851;SDS011;11592;45.460;9.240;2023-07-24T09:11:02;21.52;;;12.10;;
22851;SDS011;11592;45.460;9.240;2023-07-24T09:13:30;23.17;;;11.02;;
22851;SDS011;11592;45.460;9.240;2023-07-24T09:15:58;22.42;;;11.98;;
22851;SDS011;11592;45.460;9.240;2023-07-24T09:18:38;19.85;;;11.10;;
22851;SDS011;11592;45.460;9.240;2023-07-24T09:21:09;24.20;;;13.70;;
22851;SDS011;11592;45.460;9.240;2023-07-24T09:23:38;24.05;;;11.93;;
22851;SDS011;11592;45.460;9.240;2023-07-24T09:26:07;21.50;;;11.93;;
22851;SDS011;11592;45.460;9.240;2023-07-24T09:28:34;23.13;;;12.52;;
22851;SDS011;11592;45.460;9.240;2023-07-24T09:31:02;19.40;;;11.45;;
22851;SDS011;11592;45.460;9.240;2023-07-24T09:33:36;23.25;;;11.63;;
22851;SDS011;11592;45.460;9.240;2023-07-24T09:36:07;19.98;;;10.50;;
22851;SDS011;11592;45.460;9.240;2023-07-24T09:38:35;25.05;;;11.15;;
22851;SDS011;11592;45.460;9.240;2023-07-24T09:41:03;18.02;;;10.85;;
22851;SDS011;11592;45.460;9.240;2023-07-24T09:43:31;18.38;;;10.35;;
22851;SDS011;11592;45.460;9.240;2023-07-24T09:46:02;18.60;;;11.40;;
22851;SDS011;11592;45.460;9.240;2023-07-24T09:48:32;29.17;;;12.90;;
22851;SDS011;11592;45.460;9.240;2023-07-24T09:51:08;22.42;;;11.88;;
22851;SDS011;11592;45.460;9.240;2023-07-24T09:53:39;21.85;;;11.43;;
22851;SDS011;11592;45.460;9.240;2023-07-24T09:56:11;20.30;;;10.80;;
22851;SDS011;11592;45.460;9.240;2023-07-24T09:58:40;22.60;;;12.07;;
22851;SDS011;11592;45.460;9.240;2023-07-24T10:01:08;18.40;;;11.77;;
22851;SDS011;11592;45.460;9.240;2023-07-24T10:03:40;21.52;;;12.73;;
22851;SDS011;11592;45.460;9.240;2023-07-24T10:06:15;20.70;;;12.32;;
22851;SDS011;11592;45.460;9.240;2023-07-24T10:08:43;20.58;;;12.27;;
22851;SDS011;11592;45.460;9.240;2023-07-24T10:11:11;20.70;;;13.00;;
22851;SDS011;11592;45.460;9.240;2023-07-24T10:13:39;19.90;;;12.45;;
22851;SDS011;11592;45.460;9.240;2023-07-24T10:16:07;19.70;;;11.93;;
22851;SDS011;11592;45.460;9.240;2023-07-24T10:18:35;21.35;;;12.73;;
22851;SDS011;11592;45.460;9.240;2023-07-24T10:21:10;22.90;;;12.52;;
22851;SDS011;11592;45.460;9.240;2023-07-24T10:23:44;21.13;;;11.88;;
22851;SDS011;11592;45.460;9.240;2023-07-24T10:26:15;24.10;;;12.00;;
22851;SDS011;11592;45.460;9.240;2023-07-24T10:28:42;23.45;;;12.32;;
22851;SDS011;11592;45.460;9.240;2023-07-24T10:31:19;30.50;;;17.08;;
22851;SDS011;11592;45.460;9.240;2023-07-24T10:33:48;29.02;;;13.93;;
22851;SDS011;11592;45.460;9.240;2023-07-24T10:36:17;27.23;;;13.32;;
22851;SDS011;11592;45.460;9.240;2023-07-24T10:38:46;26.27;;;12.70;;
22851;SDS011;11592;45.460;9.240;2023-07-24T10:41:17;24.90;;;11.90;;
22851;SDS011;11592;45.460;9.240;2023-07-24T10:43:48;21.35;;;11.27;;
22851;SDS011;11592;45.460;9.240;2023-07-24T10:46:17;19.60;;;12.00;;
22851;SDS011;11592;45.460;9.240;2023-07-24T10:48:47;19.50;;;11.73;;
22851;SDS011;11592;45.460;9.240;2023-07-24T10:51:15;22.88;;;11.13;;
22851;SDS011;11592;45.460;9.240;2023-07-24T10:53:48;20.58;;;11.05;;
22851;SDS011;11592;45.460;9.240;2023-07-24T10:56:16;19.70;;;11.88;;
22851;SDS011;11592;45.460;9.240;2023-07-24T10:58:43;22.33;;;10.75;;
22851;SDS011;11592;45.460;9.240;2023-07-24T11:01:10;17.77;;;10.98;;
22851;SDS011;11592;45.460;9.240;2023-07-24T11:03:41;21.52;;;11.65;;
22851;SDS011;11592;45.460;9.240;2023-07-24T11:06:16;20.27;;;10.90;;
22851;SDS011;11592;45.460;9.240;2023-07-24T11:08:57;20.70;;;10.68;;
22851;SDS011;11592;45.460;9.240;2023-07-24T11:11:35;26.15;;;11.23;;
22851;SDS011;11592;45.460;9.240;2023-07-24T11:14:02;19.90;;;10.95;;
22851;SDS011;11592;45.460;9.240;2023-07-24T11:16:30;25.05;;;11.95;;
22851;SDS011;11592;45.460;9.240;2023-07-24T11:18:59;24.60;;;11.27;;
22851;SDS011;11592;45.460;9.240;2023-07-24T11:21:26;20.00;;;11.07;;
22851;SDS011;11592;45.460;9.240;2023-07-24T11:23:55;19.08;;;10.20;;
22851;SDS011;11592;45.460;9.240;2023-07-24T11:26:23;20.52;;;10.63;;
22851;SDS011;11592;45.460;9.240;2023-07-24T11:28:51;19.75;;;11.25;;
22851;SDS011;11592;45.460;9.240;2023-07-24T11:31:19;19.08;;;10.95;;
22851;SDS011;11592;45.460;9.240;2023-07-24T11:33:47;22.63;;;11.68;;
22851;SDS011;11592;45.460;9.240;2023-07-24T11:36:15;21.75;;;12.00;;
22851;SDS011;11592;45.460;9.240;2023-07-24T11:38:44;19.73;;;11.27;;
22851;SDS011;11592;45.460;9.240;2023-07-24T11:41:11;22.27;;;11.05;;
22851;SDS011;11592;45.460;9.240;2023-07-24T11:43:44;19.60;;;11.02;;
22851;SDS011;11592;45.460;9.240;2023-07-24T11:46:22;19.30;;;11.18;;
22851;SDS011;11592;45.460;9.240;2023-07-24T11:48:50;21.13;;;10.55;;
22851;SDS011;11592;45.460;9.240;2023-07-24T11:51:19;23.08;;;11.48;;
22851;SDS011;11592;45.460;9.240;2023-07-24T11:53:47;21.25;;;12.15;;
22851;SDS011;11592;45.460;9.240;2023-07-24T11:56:14;20.92;;;11.50;;
22851;SDS011;11592;45.460;9.240;2023-07-24T11:58:42;27.30;;;12.30;;
22851;SDS011;11592;45.460;9.240;2023-07-24T12:01:10;26.75;;;12.18;;
22851;SDS011;11592;45.460;9.240;2023-07-24T12:03:38;22.67;;;11.80;;
22851;SDS011;11592;45.460;9.240;2023-07-24T12:06:13;18.25;;;9.65;;
22851;SDS011;11592;45.460;9.240;2023-07-24T12:08:42;19.48;;;7.18;;
22851;SDS011;11592;45.460;9.240;2023-07-24T12:11:16;11.88;;;5.47;;
22851;SDS011;11592;45.460;9.240;2023-07-24T12:13:46;9.75;;;5.20;;
22851;SDS011;11592;45.460;9.240;2023-07-24T12:16:16;12.13;;;4.85;;
22851;SDS011;11592;45.460;9.240;2023-07-24T12:18:44;8.25;;;4.90;;
22851;SDS011;11592;45.460;9.240;2023-07-24T12:21:11;9.57;;;4.45;;
22851;SDS011;11592;45.460;9.240;2023-07-24T12:23:38;10.93;;;4.70;;
22851;SDS011;11592;45.460;9.240;2023-07-24T12:26:04;8.88;;;4.40;;
22851;SDS011;11592;45.460;9.240;2023-07-24T12:28:31;8.18;;;3.72;;
22851;SDS011;11592;45.460;9.240;2023-07-24T12:30:59;7.38;;;3.70;;
22851;SDS011;11592;45.460;9.240;2023-07-24T12:33:25;9.15;;;4.03;;
22851;SDS011;11592;45.460;9.240;2023-07-24T12:35:52;10.27;;;5.18;;
22851;SDS011;11592;45.460;9.240;2023-07-24T12:38:19;11.77;;;5.75;;
22851;SDS011;11592;45.460;9.240;2023-07-24T12:40:46;9.55;;;5.03;;
22851;SDS011;11592;45.460;9.240;2023-07-24T12:43:14;14.85;;;6.10;;
22851;SDS011;11592;45.460;9.240;2023-07-24T12:45:41;9.63;;;5.72;;
22851;SDS011;11592;45.460;9.240;2023-07-24T12:48:08;11.65;;;5.88;;
22851;SDS011;11592;45.460;9.240;2023-07-24T12:50:36;12.30;;;6.90;;
22851;SDS011;11592;45.460;9.240;2023-07-24T12:53:02;13.05;;;7.15;;
22851;SDS011;11592;45.460;9.240;2023-07-24T12:55:31;12.07;;;7.25;;
22851;SDS011;11592;45.460;9.240;2023-07-24T12:57:58;14.57;;;7.13;;
22851;SDS011;11592;45.460;9.240;2023-07-24T13:00:25;11.95;;;7.15;;
22851;SDS011;11592;45.460;9.240;2023-07-24T13:02:52;15.48;;;6.93;;
22851;SDS011;11592;45.460;9.240;2023-07-24T13:05:19;13.23;;;7.10;;
22851;SDS011;11592;45.460;9.240;2023-07-24T13:07:45;20.77;;;8.60;;
22851;SDS011;11592;45.460;9.240;2023-07-24T13:10:12;16.65;;;8.32;;
22851;SDS011;11592;45.460;9.240;2023-07-24T13:12:39;14.48;;;6.78;;
22851;SDS011;11592;45.460;9.240;2023-07-24T13:15:06;13.70;;;7.35;;
22851;SDS011;11592;45.460;9.240;2023-07-24T13:17:33;17.80;;;7.78;;
22851;SDS011;11592;45.460;9.240;2023-07-24T13:20:01;16.65;;;8.13;;
22851;SDS011;11592;45.460;9.240;2023-07-24T13:22:28;13.45;;;7.53;;
22851;SDS011;11592;45.460;9.240;2023-07-24T13:24:55;14.70;;;7.65;;
22851;SDS011;11592;45.460;9.240;2023-07-24T13:27:22;13.27;;;7.47;;
22851;SDS011;11592;45.460;9.240;2023-07-24T13:29:48;13.93;;;7.22;;
22851;SDS011;11592;45.460;9.240;2023-07-24T13:32:15;14.98;;;7.45;;
22851;SDS011;11592;45.460;9.240;2023-07-24T13:34:42;12.65;;;7.30;;
22851;SDS011;11592;45.460;9.240;2023-07-24T13:37:09;15.10;;;8.52;;
22851;SDS011;11592;45.460;9.240;2023-07-24T13:39:36;22.48;;;8.75;;
22851;SDS011;11592;45.460;9.240;2023-07-24T13:42:03;16.33;;;8.02;;
22851;SDS011;11592;45.460;9.240;2023-07-24T13:44:30;14.88;;;8.07;;
22851;SDS011;11592;45.460;9.240;2023-07-24T13:46:56;15.13;;;8.07;;
22851;SDS011;11592;45.460;9.240;2023-07-24T13:49:23;17.65;;;8.32;;
22851;SDS011;11592;45.460;9.240;2023-07-24T13:51:50;15.10;;;8.10;;
22851;SDS011;11592;45.460;9.240;2023-07-24T13:54:17;13.80;;;8.40;;
22851;SDS011;11592;45.460;9.240;2023-07-24T13:56:44;14.10;;;8.30;;
22851;SDS011;11592;45.460;9.240;2023-07-24T13:59:11;14.38;;;7.80;;
22851;SDS011;11592;45.460;9.240;2023-07-24T14:01:38;13.90;;;8.05;;
22851;SDS011;11592;45.460;9.240;2023-07-24T14:04:04;16.00;;;8.43;;
22851;SDS011;11592;45.460;9.240;2023-07-24T14:06:31;15.73;;;7.80;;
22851;SDS011;11592;45.460;9.240;2023-07-24T14:08:58;13.13;;;7.55;;
22851;SDS011;11592;45.460;9.240;2023-07-24T14:11:25;15.00;;;6.88;;
22851;SDS011;11592;45.460;9.240;2023-07-24T14:13:54;13.98;;;7.65;;
22851;SDS011;11592;45.460;9.240;2023-07-24T14:16:21;12.90;;;7.15;;
22851;SDS011;11592;45.460;9.240;2023-07-24T14:18:48;13.85;;;7.60;;
22851;SDS011;11592;45.460;9.240;2023-07-24T14:21:14;13.77;;;7.60;;
22851;SDS011;11592;45.460;9.240;2023-07-24T14:23:41;12.27;;;7.50;;
22851;SDS011;11592;45.460;9.240;2023-07-24T14:26:08;11.88;;;7.32;;
22851;SDS011;11592;45.460;9.240;2023-07-24T14:28:35;13.82;;;7.07;;